Time,TemperatureF,DewpointF,PressureIn,WindDirection,WindDirectionDegrees,WindSpeedMPH,WindSpeedGustMPH,Humidity,HourlyPrecipIn,Conditions,Clouds,dailyrainin,SoftwareType,DateUTC
2013-12-10 00:02:00,29.0,24.0,30.32,WNW,296,0.0,0.0,81,0.00,,,0.00,,2013-12-10 06:02:00,
2013-12-10 06:42:00,20.0,15.0,30.37,WNW,301,0.0,0.0,82,0.00,,,0.00,,2013-12-10 12:42:00,
2013-12-10 06:52:00,20.0,15.0,30.37,WNW,300,0.0,0.0,82,0.00,,,0.00,,2013-12-10 12:52:00,
2013-12-10 07:22:00,19.0,15.0,30.39,WNW,300,0.0,0.0,83,0.00,,,0.00,,2013-12-10 13:22:00,
2013-12-10 07:52:00,19.0,15.0,30.39,WNW,297,0.0,0.0,84,0.00,,,0.00,,2013-12-10 13:52:00,
2013-12-10 08:22:00,19.0,15.0,30.40,NW,313,0.0,0.0,84,0.00,,,0.00,,2013-12-10 14:22:00,
2013-12-10 08:52:00,21.0,17.0,30.41,NW,316,0.0,0.0,84,0.00,,,0.00,,2013-12-10 14:52:00,
2013-12-10 09:22:00,22.0,17.0,30.42,NW,312,0.0,0.0,81,0.00,,,0.00,,2013-12-10 15:22:00,
2013-12-10 09:53:00,24.0,19.0,30.43,NW,309,0.0,0.0,80,0.00,,,0.00,,2013-12-10 15:53:00,
2013-12-10 10:23:00,25.0,19.0,30.43,WNW,292,0.0,0.0,77,0.00,,,0.00,,2013-12-10 16:23:00,
2013-12-10 10:43:00,27.0,21.0,30.43,WNW,302,0.0,3.0,79,0.00,,,0.00,,2013-12-10 16:43:00,
2013-12-10 10:52:00,28.0,22.0,30.43,NW,326,4.0,12.0,77,0.00,,,0.00,,2013-12-10 16:52:00,
2013-12-10 11:22:00,28.0,21.0,30.34,WNW,288,0.0,7.0,75,0.00,,,0.00,,2013-12-10 17:22:00,
2013-12-10 11:52:00,30.0,23.0,30.42,West,273,1.0,6.0,74,0.01,,,0.01,,2013-12-10 17:52:00,
2013-12-10 12:11:00,31.0,23.0,30.42,NW,313,3.0,6.0,72,0.02,,,0.02,,2013-12-10 18:11:00,
2013-12-10 12:22:00,31.0,23.0,30.41,NW,315,1.0,5.0,73,0.02,,,0.02,,2013-12-10 18:22:00,
2013-12-10 12:42:00,32.0,24.0,30.40,NW,313,1.0,6.0,72,0.02,,,0.02,,2013-12-10 18:42:00,
2013-12-10 12:52:00,31.0,23.0,30.40,NW,313,1.0,6.0,71,0.02,,,0.03,,2013-12-10 18:52:00,
2013-12-10 13:22:00,31.0,23.0,30.37,NW,309,3.0,9.0,71,0.02,,,0.04,,2013-12-10 19:22:00,
2013-12-10 13:42:00,31.0,22.0,30.27,NW,314,1.0,6.0,70,0.02,,,0.04,,2013-12-10 19:42:00,
2013-12-10 13:52:00,31.0,22.0,30.01,NW,317,1.0,6.0,70,0.01,,,0.04,,2013-12-10 19:52:00,
2013-12-10 14:22:00,32.0,24.0,30.33,NNE,19,1.0,3.0,71,0.01,,,0.05,,2013-12-10 20:22:00,
2013-12-10 14:42:00,32.0,23.0,30.33,West,276,0.0,6.0,70,0.01,,,0.05,,2013-12-10 20:42:00,
2013-12-10 14:52:00,33.0,24.0,30.33,NW,305,2.0,5.0,69,0.02,,,0.06,,2013-12-10 20:52:00,
2013-12-10 15:22:00,34.0,25.0,30.05,West,273,0.0,3.0,69,0.01,,,0.06,,2013-12-10 21:22:00,
2013-12-10 15:43:00,34.0,24.0,30.21,West,271,0.0,5.0,67,0.01,,,0.06,,2013-12-10 21:43:00,
2013-12-10 15:54:00,34.0,24.0,30.30,West,275,1.0,3.0,67,0.00,,,0.06,,2013-12-10 21:54:00,
2013-12-10 16:23:00,35.0,24.0,30.30,SE,140,1.0,3.0,64,0.00,,,0.06,,2013-12-10 22:23:00,
2013-12-10 16:43:00,35.0,24.0,30.29,West,261,0.0,2.0,64,0.00,,,0.06,,2013-12-10 22:43:00,
2013-12-10 16:52:00,35.0,24.0,30.29,West,261,0.0,3.0,65,0.00,,,0.06,,2013-12-10 22:52:00,
2013-12-10 17:12:00,34.0,23.0,30.29,West,261,0.0,1.0,65,0.00,,,0.06,,2013-12-10 23:12:00,
2013-12-10 17:22:00,34.0,23.0,30.28,West,261,0.0,0.0,65,0.00,,,0.06,,2013-12-10 23:22:00,
2013-12-10 17:42:00,34.0,25.0,30.27,West,261,0.0,1.0,69,0.00,,,0.06,,2013-12-10 23:42:00,
2013-12-10 17:53:00,34.0,25.0,30.29,West,261,0.0,1.0,69,0.00,,,0.06,,2013-12-10 23:53:00,
2013-12-10 18:22:00,32.0,24.0,30.09,West,261,0.0,1.0,73,0.00,,,0.06,,2013-12-11 00:22:00,
2013-12-10 18:42:00,31.0,24.0,30.28,West,261,0.0,0.0,76,0.00,,,0.06,,2013-12-11 00:42:00,
2013-12-10 18:52:00,31.0,25.0,30.16,West,261,0.0,0.0,77,0.00,,,0.06,,2013-12-11 00:52:00,
2013-12-10 19:11:00,30.0,24.0,30.26,West,261,0.0,1.0,79,0.00,,,0.06,,2013-12-11 01:11:00,
2013-12-10 19:21:00,30.0,24.0,30.19,West,261,0.0,0.0,79,0.00,,,0.06,,2013-12-11 01:21:00,
2013-12-10 19:42:00,30.0,25.0,30.28,West,261,0.0,0.0,81,0.00,,,0.06,,2013-12-11 01:42:00,
2013-12-10 19:52:00,29.0,24.0,30.28,West,261,0.0,0.0,81,0.00,,,0.06,,2013-12-11 01:52:00,
2013-12-10 20:22:00,28.0,23.0,30.27,West,261,0.0,0.0,82,0.00,,,0.06,,2013-12-11 02:22:00,
2013-12-10 20:52:00,28.0,24.0,30.27,West,261,0.0,0.0,83,0.00,,,0.06,,2013-12-11 02:52:00,
2013-12-10 21:22:00,27.0,23.0,30.28,West,261,0.0,0.0,84,0.00,,,0.06,,2013-12-11 03:22:00,
2013-12-10 21:43:00,27.0,23.0,30.24,West,261,0.0,0.0,85,0.00,,,0.06,,2013-12-11 03:43:00,
2013-12-10 21:54:00,26.0,22.0,30.27,West,261,0.0,0.0,85,0.00,,,0.06,,2013-12-11 03:54:00,
2013-12-10 22:13:00,26.0,22.0,30.27,West,261,0.0,0.0,86,0.00,,,0.06,,2013-12-11 04:13:00,
2013-12-10 22:23:00,26.0,22.0,30.27,West,261,0.0,0.0,86,0.00,,,0.06,,2013-12-11 04:23:00,
2013-12-10 22:43:00,25.0,21.0,30.27,West,261,0.0,0.0,86,0.00,,,0.06,,2013-12-11 04:43:00,
2013-12-10 22:52:00,25.0,21.0,30.27,West,261,0.0,0.0,86,0.00,,,0.06,,2013-12-11 04:52:00,
2013-12-10 23:22:00,25.0,22.0,30.28,West,261,0.0,0.0,87,0.00,,,0.06,,2013-12-11 05:22:00,
2013-12-10 23:43:00,25.0,22.0,30.28,West,261,0.0,0.0,87,0.00,,,0.06,,2013-12-11 05:43:00,
2013-12-10 23:53:00,25.0,22.0,30.28,West,261,0.0,0.0,87,0.00,,,0.06,,2013-12-11 05:53:00,